sensor_id;sensor_type;location;lat;lon;timestamp;P1;durP1;ratioP1;P2;durP2;ratioP2
62711;SDS011;48772;55.586;37.730;2022-08-11T00:00:39;9.85;;;4.78;;
62711;SDS011;48772;55.586;37.730;2022-08-11T00:03:08;7.90;;;3.67;;
62711;SDS011;48772;55.586;37.730;2022-08-11T00:05:47;5.25;;;3.50;;
62711;SDS011;48772;55.586;37.730;2022-08-11T00:08:24;4.78;;;3.17;;
62711;SDS011;48772;55.586;37.730;2022-08-11T00:10:56;5.55;;;3.25;;
62711;SDS011;48772;55.586;37.730;2022-08-11T00:13:31;7.20;;;3.25;;
62711;SDS011;48772;55.586;37.730;2022-08-11T00:16:03;4.65;;;3.00;;
62711;SDS011;48772;55.586;37.730;2022-08-11T00:18:38;6.55;;;2.75;;
62711;SDS011;48772;55.586;37.730;2022-08-11T00:21:06;7.57;;;2.50;;
62711;SDS011;48772;55.586;37.730;2022-08-11T00:23:37;6.13;;;2.15;;
62711;SDS011;48772;55.586;37.730;2022-08-11T00:26:11;6.18;;;2.38;;
62711;SDS011;48772;55.586;37.730;2022-08-11T00:28:40;3.45;;;2.20;;
62711;SDS011;48772;55.586;37.730;2022-08-11T00:31:07;2.75;;;1.88;;
62711;SDS011;48772;55.586;37.730;2022-08-11T00:33:40;3.33;;;1.27;;
62711;SDS011;48772;55.586;37.730;2022-08-11T00:36:09;2.70;;;1.60;;
62711;SDS011;48772;55.586;37.730;2022-08-11T00:38:51;3.40;;;1.70;;
62711;SDS011;48772;55.586;37.730;2022-08-11T00:41:33;1.67;;;1.50;;
62711;SDS011;48772;55.586;37.730;2022-08-11T00:50:26;2.72;;;1.50;;
62711;SDS011;48772;55.586;37.730;2022-08-11T01:20:09;3.03;;;1.33;;
62711;SDS011;48772;55.586;37.730;2022-08-11T01:23:07;3.75;;;1.60;;
62711;SDS011;48772;55.586;37.730;2022-08-11T01:34:39;8.10;;;1.70;;
62711;SDS011;48772;55.586;37.730;2022-08-11T01:46:12;4.30;;;1.43;;
62711;SDS011;48772;55.586;37.730;2022-08-11T01:51:21;4.13;;;1.60;;
62711;SDS011;48772;55.586;37.730;2022-08-11T01:54:03;4.85;;;1.63;;
62711;SDS011;48772;55.586;37.730;2022-08-11T01:56:37;3.63;;;1.90;;
62711;SDS011;48772;55.586;37.730;2022-08-11T02:07:34;3.05;;;1.75;;
62711;SDS011;48772;55.586;37.730;2022-08-11T02:10:20;6.80;;;1.75;;
62711;SDS011;48772;55.586;37.730;2022-08-11T02:16:20;4.03;;;1.70;;
62711;SDS011;48772;55.586;37.730;2022-08-11T02:18:52;2.95;;;1.60;;
62711;SDS011;48772;55.586;37.730;2022-08-11T02:21:54;5.07;;;1.80;;
62711;SDS011;48772;55.586;37.730;2022-08-11T02:25:05;5.78;;;1.50;;
62711;SDS011;48772;55.586;37.730;2022-08-11T02:27:41;5.27;;;1.50;;
62711;SDS011;48772;55.586;37.730;2022-08-11T02:30:11;9.40;;;1.70;;
62711;SDS011;48772;55.586;37.730;2022-08-11T02:32:49;5.18;;;1.73;;
62711;SDS011;48772;55.586;37.730;2022-08-11T02:40:56;4.05;;;1.80;;
62711;SDS011;48772;55.586;37.730;2022-08-11T02:44:07;7.47;;;1.83;;
62711;SDS011;48772;55.586;37.730;2022-08-11T02:46:47;4.57;;;1.83;;
62711;SDS011;48772;55.586;37.730;2022-08-11T03:01:38;5.55;;;1.83;;
62711;SDS011;48772;55.586;37.730;2022-08-11T03:04:11;5.63;;;2.17;;
62711;SDS011;48772;55.586;37.730;2022-08-11T03:06:47;3.40;;;1.65;;
62711;SDS011;48772;55.586;37.730;2022-08-11T03:12:05;3.08;;;1.95;;
62711;SDS011;48772;55.586;37.730;2022-08-11T03:14:55;5.63;;;1.88;;
62711;SDS011;48772;55.586;37.730;2022-08-11T03:20:43;8.93;;;2.05;;
62711;SDS011;48772;55.586;37.730;2022-08-11T03:23:33;4.88;;;2.10;;
62711;SDS011;48772;55.586;37.730;2022-08-11T03:26:23;9.00;;;2.47;;
62711;SDS011;48772;55.586;37.730;2022-08-11T03:31:55;6.45;;;1.90;;
62711;SDS011;48772;55.586;37.730;2022-08-11T03:34:27;5.32;;;2.17;;
62711;SDS011;48772;55.586;37.730;2022-08-11T03:39:33;16.00;;;3.08;;
62711;SDS011;48772;55.586;37.730;2022-08-11T03:42:09;4.05;;;2.10;;
62711;SDS011;48772;55.586;37.730;2022-08-11T03:50:53;3.63;;;2.00;;
62711;SDS011;48772;55.586;37.730;2022-08-11T03:57:01;11.15;;;2.17;;
62711;SDS011;48772;55.586;37.730;2022-08-11T04:16:53;6.80;;;2.00;;
62711;SDS011;48772;55.586;37.730;2022-08-11T04:25:28;6.50;;;1.98;;
62711;SDS011;48772;55.586;37.730;2022-08-11T04:55:38;5.75;;;2.40;;
62711;SDS011;48772;55.586;37.730;2022-08-11T04:58:49;7.35;;;2.50;;
62711;SDS011;48772;55.586;37.730;2022-08-11T05:02:28;8.30;;;2.45;;
62711;SDS011;48772;55.586;37.730;2022-08-11T05:04:45;6.78;;;2.33;;
62711;SDS011;48772;55.586;37.730;2022-08-11T05:13:40;8.68;;;2.95;;
62711;SDS011;48772;55.586;37.730;2022-08-11T05:16:32;6.22;;;2.40;;
62711;SDS011;48772;55.586;37.730;2022-08-11T05:19:35;7.05;;;2.33;;
62711;SDS011;48772;55.586;37.730;2022-08-11T05:22:21;7.53;;;2.47;;
62711;SDS011;48772;55.586;37.730;2022-08-11T05:25:16;7.55;;;2.50;;
62711;SDS011;48772;55.586;37.730;2022-08-11T05:28:08;5.82;;;2.38;;
62711;SDS011;48772;55.586;37.730;2022-08-11T05:30:55;5.60;;;2.38;;
62711;SDS011;48772;55.586;37.730;2022-08-11T05:33:47;8.52;;;2.33;;
62711;SDS011;48772;55.586;37.730;2022-08-11T05:36:43;13.60;;;2.60;;
62711;SDS011;48772;55.586;37.730;2022-08-11T05:39:16;4.65;;;2.47;;
62711;SDS011;48772;55.586;37.730;2022-08-11T05:42:05;7.18;;;2.25;;
62711;SDS011;48772;55.586;37.730;2022-08-11T05:44:52;8.88;;;2.40;;
62711;SDS011;48772;55.586;37.730;2022-08-11T05:47:40;5.25;;;2.40;;
62711;SDS011;48772;55.586;37.730;2022-08-11T05:50:25;7.10;;;2.20;;
62711;SDS011;48772;55.586;37.730;2022-08-11T05:53:11;6.80;;;2.50;;
62711;SDS011;48772;55.586;37.730;2022-08-11T05:55:58;11.55;;;2.53;;
62711;SDS011;48772;55.586;37.730;2022-08-11T05:58:45;8.05;;;2.60;;
62711;SDS011;48772;55.586;37.730;2022-08-11T06:01:22;6.75;;;2.60;;
62711;SDS011;48772;55.586;37.730;2022-08-11T06:03:53;7.82;;;2.67;;
62711;SDS011;48772;55.586;37.730;2022-08-11T06:06:45;7.55;;;2.95;;
62711;SDS011;48772;55.586;37.730;2022-08-11T06:12:17;9.80;;;2.72;;
62711;SDS011;48772;55.586;37.730;2022-08-11T06:14:45;10.77;;;2.55;;
62711;SDS011;48772;55.586;37.730;2022-08-11T06:17:24;8.00;;;2.75;;
62711;SDS011;48772;55.586;37.730;2022-08-11T06:19:59;9.40;;;2.58;;
62711;SDS011;48772;55.586;37.730;2022-08-11T06:22:28;8.02;;;2.67;;
62711;SDS011;48772;55.586;37.730;2022-08-11T06:24:56;8.38;;;2.40;;
62711;SDS011;48772;55.586;37.730;2022-08-11T06:27:25;14.68;;;2.50;;
62711;SDS011;48772;55.586;37.730;2022-08-11T06:29:54;7.25;;;2.13;;
62711;SDS011;48772;55.586;37.730;2022-08-11T06:32:28;9.70;;;2.50;;
62711;SDS011;48772;55.586;37.730;2022-08-11T06:35:00;9.80;;;2.10;;
62711;SDS011;48772;55.586;37.730;2022-08-11T06:37:45;4.82;;;2.20;;
62711;SDS011;48772;55.586;37.730;2022-08-11T06:46:25;4.95;;;2.30;;
62711;SDS011;48772;55.586;37.730;2022-08-11T06:48:53;5.32;;;2.17;;
62711;SDS011;48772;55.586;37.730;2022-08-11T06:51:20;6.18;;;1.73;;
62711;SDS011;48772;55.586;37.730;2022-08-11T06:53:54;6.38;;;1.98;;
62711;SDS011;48772;55.586;37.730;2022-08-11T06:56:27;7.22;;;2.10;;
62711;SDS011;48772;55.586;37.730;2022-08-11T06:59:14;5.95;;;2.45;;
62711;SDS011;48772;55.586;37.730;2022-08-11T07:04:46;5.82;;;1.58;;
62711;SDS011;48772;55.586;37.730;2022-08-11T07:07:23;3.25;;;2.55;;
62711;SDS011;48772;55.586;37.730;2022-08-11T07:13:39;4.63;;;2.10;;
62711;SDS011;48772;55.586;37.730;2022-08-11T07:16:25;4.30;;;2.00;;
62711;SDS011;48772;55.586;37.730;2022-08-11T07:18:59;6.28;;;2.28;;
62711;SDS011;48772;55.586;37.730;2022-08-11T07:21:46;3.92;;;1.60;;
62711;SDS011;48772;55.586;37.730;2022-08-11T07:24:39;2.85;;;1.60;;
62711;SDS011;48772;55.586;37.730;2022-08-11T07:27:36;3.67;;;1.67;;
62711;SDS011;48772;55.586;37.730;2022-08-11T07:30:33;6.13;;;2.00;;
62711;SDS011;48772;55.586;37.730;2022-08-11T07:33:04;9.43;;;1.80;;
62711;SDS011;48772;55.586;37.730;2022-08-11T07:35:35;4.07;;;1.50;;
62711;SDS011;48772;55.586;37.730;2022-08-11T07:38:21;6.43;;;1.80;;
62711;SDS011;48772;55.586;37.730;2022-08-11T07:41:08;2.90;;;1.58;;
62711;SDS011;48772;55.586;37.730;2022-08-11T07:43:36;7.30;;;1.90;;
62711;SDS011;48772;55.586;37.730;2022-08-11T07:46:03;8.00;;;1.70;;
62711;SDS011;48772;55.586;37.730;2022-08-11T07:48:48;1.83;;;1.40;;
62711;SDS011;48772;55.586;37.730;2022-08-11T07:51:33;1.88;;;1.40;;
62711;SDS011;48772;55.586;37.730;2022-08-11T07:54:19;2.55;;;1.30;;
62711;SDS011;48772;55.586;37.730;2022-08-11T07:56:45;1.80;;;1.33;;
62711;SDS011;48772;55.586;37.730;2022-08-11T07:59:12;6.40;;;1.50;;
62711;SDS011;48772;55.586;37.730;2022-08-11T08:01:57;2.50;;;1.60;;
62711;SDS011;48772;55.586;37.730;2022-08-11T08:04:42;1.98;;;1.67;;
62711;SDS011;48772;55.586;37.730;2022-08-11T08:07:29;5.18;;;1.60;;
62711;SDS011;48772;55.586;37.730;2022-08-11T08:10:14;3.42;;;1.60;;
62711;SDS011;48772;55.586;37.730;2022-08-11T08:13:01;3.05;;;1.30;;
62711;SDS011;48772;55.586;37.730;2022-08-11T08:15:47;2.28;;;1.60;;
62711;SDS011;48772;55.586;37.730;2022-08-11T08:18:32;2.70;;;1.30;;
62711;SDS011;48772;55.586;37.730;2022-08-11T08:21:00;5.00;;;1.30;;
62711;SDS011;48772;55.586;37.730;2022-08-11T08:23:41;2.05;;;1.30;;
62711;SDS011;48772;55.586;37.730;2022-08-11T08:26:10;4.72;;;1.60;;
62711;SDS011;48772;55.586;37.730;2022-08-11T08:28:59;1.60;;;1.50;;
62711;SDS011;48772;55.586;37.730;2022-08-11T08:31:46;3.90;;;1.35;;
62711;SDS011;48772;55.586;37.730;2022-08-11T08:34:22;3.95;;;1.52;;
62711;SDS011;48772;55.586;37.730;2022-08-11T08:36:49;1.65;;;1.33;;
62711;SDS011;48772;55.586;37.730;2022-08-11T08:39:20;4.22;;;1.55;;
62711;SDS011;48772;55.586;37.730;2022-08-11T08:41:51;4.05;;;1.48;;
62711;SDS011;48772;55.586;37.730;2022-08-11T08:44:20;4.20;;;1.60;;
62711;SDS011;48772;55.586;37.730;2022-08-11T08:46:50;3.85;;;1.60;;
62711;SDS011;48772;55.586;37.730;2022-08-11T08:49:21;2.97;;;1.60;;
62711;SDS011;48772;55.586;37.730;2022-08-11T08:51:53;11.32;;;1.70;;
62711;SDS011;48772;55.586;37.730;2022-08-11T08:54:35;3.47;;;1.38;;
62711;SDS011;48772;55.586;37.730;2022-08-11T08:57:03;2.50;;;1.50;;
62711;SDS011;48772;55.586;37.730;2022-08-11T08:59:32;4.15;;;1.48;;
62711;SDS011;48772;55.586;37.730;2022-08-11T09:02:04;3.28;;;1.30;;
62711;SDS011;48772;55.586;37.730;2022-08-11T09:04:32;2.17;;;1.48;;
62711;SDS011;48772;55.586;37.730;2022-08-11T09:06:59;7.10;;;1.50;;
62711;SDS011;48772;55.586;37.730;2022-08-11T09:09:33;1.48;;;1.30;;
62711;SDS011;48772;55.586;37.730;2022-08-11T09:11:59;1.20;;;1.10;;
62711;SDS011;48772;55.586;37.730;2022-08-11T09:14:37;2.33;;;1.50;;
62711;SDS011;48772;55.586;37.730;2022-08-11T09:17:23;2.88;;;1.38;;
62711;SDS011;48772;55.586;37.730;2022-08-11T09:19:59;2.55;;;1.20;;
62711;SDS011;48772;55.586;37.730;2022-08-11T09:22:34;5.63;;;1.50;;
62711;SDS011;48772;55.586;37.730;2022-08-11T09:25:21;1.75;;;1.17;;
62711;SDS011;48772;55.586;37.730;2022-08-11T09:28:12;1.30;;;1.20;;
62711;SDS011;48772;55.586;37.730;2022-08-11T09:30:40;6.78;;;1.58;;
62711;SDS011;48772;55.586;37.730;2022-08-11T09:33:08;3.10;;;1.30;;
62711;SDS011;48772;55.586;37.730;2022-08-11T09:35:37;3.00;;;1.30;;
62711;SDS011;48772;55.586;37.730;2022-08-11T09:38:10;1.50;;;1.40;;
62711;SDS011;48772;55.586;37.730;2022-08-11T09:41:07;2.67;;;1.52;;
62711;SDS011;48772;55.586;37.730;2022-08-11T09:43:35;1.58;;;1.02;;
62711;SDS011;48772;55.586;37.730;2022-08-11T09:46:26;2.35;;;1.38;;
62711;SDS011;48772;55.586;37.730;2022-08-11T09:48:55;1.50;;;1.25;;
62711;SDS011;48772;55.586;37.730;2022-08-11T09:51:24;2.05;;;1.23;;
62711;SDS011;48772;55.586;37.730;2022-08-11T09:54:03;1.30;;;1.20;;
62711;SDS011;48772;55.586;37.730;2022-08-11T09:56:32;1.77;;;1.23;;
62711;SDS011;48772;55.586;37.730;2022-08-11T09:59:42;2.45;;;1.20;;
62711;SDS011;48772;55.586;37.730;2022-08-11T10:02:08;1.80;;;1.15;;
62711;SDS011;48772;55.586;37.730;2022-08-11T10:04:42;3.70;;;1.27;;
62711;SDS011;48772;55.586;37.730;2022-08-11T10:07:15;4.88;;;1.13;;
62711;SDS011;48772;55.586;37.730;2022-08-11T10:12:40;3.90;;;1.30;;
62711;SDS011;48772;55.586;37.730;2022-08-11T10:15:17;1.20;;;1.10;;
62711;SDS011;48772;55.586;37.730;2022-08-11T10:18:06;5.20;;;1.10;;
62711;SDS011;48772;55.586;37.730;2022-08-11T10:20:58;2.63;;;1.10;;
62711;SDS011;48772;55.586;37.730;2022-08-11T10:23:32;3.13;;;1.20;;
62711;SDS011;48772;55.586;37.730;2022-08-11T10:26:19;1.13;;;1.02;;
62711;SDS011;48772;55.586;37.730;2022-08-11T10:29:09;4.35;;;1.17;;
62711;SDS011;48772;55.586;37.730;2022-08-11T10:31:56;4.22;;;1.33;;
62711;SDS011;48772;55.586;37.730;2022-08-11T10:34:46;4.93;;;1.40;;
62711;SDS011;48772;55.586;37.730;2022-08-11T10:37:14;4.18;;;1.20;;
62711;SDS011;48772;55.586;37.730;2022-08-11T10:39:51;4.57;;;1.30;;
62711;SDS011;48772;55.586;37.730;2022-08-11T10:42:20;4.20;;;1.20;;
62711;SDS011;48772;55.586;37.730;2022-08-11T10:45:05;1.85;;;1.40;;
62711;SDS011;48772;55.586;37.730;2022-08-11T10:47:55;1.38;;;1.23;;
62711;SDS011;48772;55.586;37.730;2022-08-11T10:50:22;1.35;;;1.25;;
62711;SDS011;48772;55.586;37.730;2022-08-11T10:53:08;1.48;;;1.30;;
62711;SDS011;48772;55.586;37.730;2022-08-11T10:55:54;1.35;;;1.20;;
62711;SDS011;48772;55.586;37.730;2022-08-11T10:58:41;6.22;;;1.40;;
62711;SDS011;48772;55.586;37.730;2022-08-11T11:03:51;1.95;;;1.25;;
62711;SDS011;48772;55.586;37.730;2022-08-11T11:06:24;4.50;;;1.58;;
62711;SDS011;48772;55.586;37.730;2022-08-11T11:09:06;2.13;;;1.92;;
62711;SDS011;48772;55.586;37.730;2022-08-11T11:11:38;5.10;;;1.75;;
62711;SDS011;48772;55.586;37.730;2022-08-11T11:14:30;4.43;;;1.70;;
62711;SDS011;48772;55.586;37.730;2022-08-11T11:17:26;2.25;;;1.40;;
62711;SDS011;48772;55.586;37.730;2022-08-11T11:23:33;4.15;;;1.52;;
62711;SDS011;48772;55.586;37.730;2022-08-11T11:37:25;7.53;;;1.80;;
62711;SDS011;48772;55.586;37.730;2022-08-11T11:39:53;6.32;;;2.00;;
62711;SDS011;48772;55.586;37.730;2022-08-11T11:42:22;21.77;;;2.22;;
62711;SDS011;48772;55.586;37.730;2022-08-11T11:44:49;5.20;;;2.17;;
62711;SDS011;48772;55.586;37.730;2022-08-11T11:47:15;7.00;;;1.80;;
62711;SDS011;48772;55.586;37.730;2022-08-11T11:49:47;6.35;;;2.17;;
62711;SDS011;48772;55.586;37.730;2022-08-11T11:52:15;3.25;;;1.70;;
62711;SDS011;48772;55.586;37.730;2022-08-11T11:54:44;8.55;;;1.70;;
62711;SDS011;48772;55.586;37.730;2022-08-11T11:57:15;7.25;;;1.70;;
62711;SDS011;48772;55.586;37.730;2022-08-11T12:00:03;3.30;;;1.83;;
62711;SDS011;48772;55.586;37.730;2022-08-11T12:02:49;3.33;;;1.90;;
62711;SDS011;48772;55.586;37.730;2022-08-11T12:05:16;2.70;;;1.67;;
62711;SDS011;48772;55.586;37.730;2022-08-11T12:07:43;4.82;;;1.60;;
62711;SDS011;48772;55.586;37.730;2022-08-11T12:10:29;5.80;;;1.60;;
62711;SDS011;48772;55.586;37.730;2022-08-11T12:12:58;4.15;;;1.80;;
62711;SDS011;48772;55.586;37.730;2022-08-11T12:15:43;5.55;;;1.63;;
62711;SDS011;48772;55.586;37.730;2022-08-11T12:18:10;3.15;;;1.88;;
62711;SDS011;48772;55.586;37.730;2022-08-11T12:20:39;4.75;;;1.45;;
62711;SDS011;48772;55.586;37.730;2022-08-11T12:23:05;2.63;;;1.50;;
62711;SDS011;48772;55.586;37.730;2022-08-11T12:25:49;4.30;;;1.48;;
62711;SDS011;48772;55.586;37.730;2022-08-11T12:28:35;10.25;;;1.88;;
62711;SDS011;48772;55.586;37.730;2022-08-11T12:31:01;3.65;;;2.03;;
62711;SDS011;48772;55.586;37.730;2022-08-11T12:33:28;4.60;;;1.85;;
62711;SDS011;48772;55.586;37.730;2022-08-11T12:35:55;2.47;;;1.77;;
62711;SDS011;48772;55.586;37.730;2022-08-11T12:38:24;5.55;;;1.80;;
62711;SDS011;48772;55.586;37.730;2022-08-11T12:40:51;2.97;;;1.50;;
62711;SDS011;48772;55.586;37.730;2022-08-11T12:43:36;6.22;;;1.60;;
62711;SDS011;48772;55.586;37.730;2022-08-11T12:46:45;2.33;;;1.40;;
62711;SDS011;48772;55.586;37.730;2022-08-11T12:49:19;3.75;;;1.80;;
62711;SDS011;48772;55.586;37.730;2022-08-11T12:52:07;4.90;;;1.70;;
62711;SDS011;48772;55.586;37.730;2022-08-11T12:54:40;2.85;;;1.85;;
62711;SDS011;48772;55.586;37.730;2022-08-11T13:00:09;5.45;;;2.50;;
62711;SDS011;48772;55.586;37.730;2022-08-11T13:02:54;3.78;;;1.60;;
62711;SDS011;48772;55.586;37.730;2022-08-11T13:05:40;4.97;;;1.73;;
62711;SDS011;48772;55.586;37.730;2022-08-11T13:08:07;2.90;;;1.80;;
62711;SDS011;48772;55.586;37.730;2022-08-11T13:10:34;6.07;;;1.83;;
62711;SDS011;48772;55.586;37.730;2022-08-11T13:13:20;6.03;;;1.92;;
62711;SDS011;48772;55.586;37.730;2022-08-11T13:15:47;2.20;;;1.50;;
62711;SDS011;48772;55.586;37.730;2022-08-11T13:18:17;5.85;;;1.90;;
62711;SDS011;48772;55.586;37.730;2022-08-11T13:20:47;5.80;;;1.95;;
62711;SDS011;48772;55.586;37.730;2022-08-11T13:23:16;4.05;;;2.20;;
62711;SDS011;48772;55.586;37.730;2022-08-11T13:25:42;3.58;;;1.70;;
62711;SDS011;48772;55.586;37.730;2022-08-11T13:28:08;7.03;;;1.80;;
62711;SDS011;48772;55.586;37.730;2022-08-11T13:30:37;5.47;;;1.73;;
62711;SDS011;48772;55.586;37.730;2022-08-11T13:33:23;5.53;;;2.20;;
62711;SDS011;48772;55.586;37.730;2022-08-11T13:35:50;5.15;;;1.80;;
62711;SDS011;48772;55.586;37.730;2022-08-11T13:38:18;6.35;;;1.90;;
62711;SDS011;48772;55.586;37.730;2022-08-11T13:40:47;3.20;;;2.00;;
62711;SDS011;48772;55.586;37.730;2022-08-11T13:43:14;6.30;;;1.90;;
62711;SDS011;48772;55.586;37.730;2022-08-11T13:45:43;6.13;;;2.10;;
62711;SDS011;48772;55.586;37.730;2022-08-11T13:48:12;2.80;;;1.70;;
62711;SDS011;48772;55.586;37.730;2022-08-11T13:50:39;2.67;;;2.00;;
62711;SDS011;48772;55.586;37.730;2022-08-11T13:53:25;2.10;;;1.67;;
62711;SDS011;48772;55.586;37.730;2022-08-11T13:55:56;3.60;;;1.77;;
62711;SDS011;48772;55.586;37.730;2022-08-11T13:58:25;7.55;;;1.88;;
62711;SDS011;48772;55.586;37.730;2022-08-11T14:00:53;2.55;;;1.83;;
62711;SDS011;48772;55.586;37.730;2022-08-11T14:03:21;4.38;;;2.08;;
62711;SDS011;48772;55.586;37.730;2022-08-11T14:05:50;5.78;;;2.55;;
62711;SDS011;48772;55.586;37.730;2022-08-11T14:08:39;5.70;;;2.92;;
62711;SDS011;48772;55.586;37.730;2022-08-11T14:11:08;4.82;;;2.63;;
62711;SDS011;48772;55.586;37.730;2022-08-11T14:14:01;3.75;;;2.25;;
62711;SDS011;48772;55.586;37.730;2022-08-11T14:16:34;3.47;;;2.00;;
62711;SDS011;48772;55.586;37.730;2022-08-11T14:19:08;5.43;;;2.10;;
62711;SDS011;48772;55.586;37.730;2022-08-11T14:21:38;6.55;;;2.58;;
62711;SDS011;48772;55.586;37.730;2022-08-11T14:24:30;7.93;;;2.20;;
62711;SDS011;48772;55.586;37.730;2022-08-11T14:27:00;2.80;;;2.25;;
62711;SDS011;48772;55.586;37.730;2022-08-11T14:29:27;4.68;;;2.25;;
62711;SDS011;48772;55.586;37.730;2022-08-11T14:32:10;4.18;;;1.80;;
62711;SDS011;48772;55.586;37.730;2022-08-11T14:34:40;5.47;;;1.98;;
62711;SDS011;48772;55.586;37.730;2022-08-11T14:37:13;2.53;;;2.00;;
62711;SDS011;48772;55.586;37.730;2022-08-11T14:39:44;3.05;;;1.90;;
62711;SDS011;48772;55.586;37.730;2022-08-11T14:42:13;3.30;;;1.88;;
62711;SDS011;48772;55.586;37.730;2022-08-11T14:45:05;6.97;;;2.30;;
62711;SDS011;48772;55.586;37.730;2022-08-11T14:47:57;3.35;;;1.83;;
62711;SDS011;48772;55.586;37.730;2022-08-11T14:50:31;4.95;;;1.70;;
62711;SDS011;48772;55.586;37.730;2022-08-11T14:52:59;6.18;;;2.13;;
62711;SDS011;48772;55.586;37.730;2022-08-11T14:55:31;6.40;;;1.75;;
62711;SDS011;48772;55.586;37.730;2022-08-11T14:58:21;4.40;;;1.75;;
62711;SDS011;48772;55.586;37.730;2022-08-11T15:00:53;5.00;;;1.88;;
62711;SDS011;48772;55.586;37.730;2022-08-11T15:03:21;3.03;;;1.80;;
62711;SDS011;48772;55.586;37.730;2022-08-11T15:08:15;10.00;;;1.90;;
62711;SDS011;48772;55.586;37.730;2022-08-11T15:10:43;8.93;;;1.98;;
62711;SDS011;48772;55.586;37.730;2022-08-11T15:13:10;3.65;;;1.65;;
62711;SDS011;48772;55.586;37.730;2022-08-11T15:15:40;4.10;;;1.70;;
62711;SDS011;48772;55.586;37.730;2022-08-11T15:18:25;2.78;;;1.75;;
62711;SDS011;48772;55.586;37.730;2022-08-11T15:20:51;4.85;;;1.92;;
62711;SDS011;48772;55.586;37.730;2022-08-11T15:23:37;2.30;;;1.92;;
62711;SDS011;48772;55.586;37.730;2022-08-11T15:29:22;4.30;;;1.90;;
62711;SDS011;48772;55.586;37.730;2022-08-11T15:32:10;5.15;;;2.63;;
62711;SDS011;48772;55.586;37.730;2022-08-11T15:34:57;4.90;;;1.95;;
62711;SDS011;48772;55.586;37.730;2022-08-11T15:37:43;5.68;;;2.50;;
62711;SDS011;48772;55.586;37.730;2022-08-11T15:40:18;5.85;;;1.90;;
62711;SDS011;48772;55.586;37.730;2022-08-11T15:45:55;7.60;;;2.28;;
62711;SDS011;48772;55.586;37.730;2022-08-11T15:51:06;7.13;;;2.40;;
62711;SDS011;48772;55.586;37.730;2022-08-11T15:53:39;4.40;;;2.30;;
62711;SDS011;48772;55.586;37.730;2022-08-11T15:56:08;5.15;;;2.30;;
62711;SDS011;48772;55.586;37.730;2022-08-11T15:58:40;3.67;;;2.20;;
62711;SDS011;48772;55.586;37.730;2022-08-11T16:01:28;6.80;;;2.20;;
62711;SDS011;48772;55.586;37.730;2022-08-11T16:04:15;4.63;;;1.80;;
62711;SDS011;48772;55.586;37.730;2022-08-11T16:06:44;2.70;;;2.10;;
62711;SDS011;48772;55.586;37.730;2022-08-11T16:09:19;6.22;;;2.00;;
62711;SDS011;48772;55.586;37.730;2022-08-11T16:11:49;7.85;;;2.70;;
62711;SDS011;48772;55.586;37.730;2022-08-11T16:14:16;3.22;;;2.42;;
62711;SDS011;48772;55.586;37.730;2022-08-11T16:17:03;8.95;;;3.30;;
62711;SDS011;48772;55.586;37.730;2022-08-11T16:19:32;12.70;;;5.93;;
62711;SDS011;48772;55.586;37.730;2022-08-11T16:22:04;17.88;;;8.40;;
62711;SDS011;48772;55.586;37.730;2022-08-11T16:24:37;10.60;;;5.93;;
62711;SDS011;48772;55.586;37.730;2022-08-11T16:27:09;11.18;;;3.83;;
62711;SDS011;48772;55.586;37.730;2022-08-11T16:29:39;9.23;;;3.60;;
62711;SDS011;48772;55.586;37.730;2022-08-11T16:32:08;8.40;;;2.80;;
62711;SDS011;48772;55.586;37.730;2022-08-11T16:34:45;5.07;;;2.80;;
62711;SDS011;48772;55.586;37.730;2022-08-11T16:37:34;17.27;;;2.88;;
62711;SDS011;48772;55.586;37.730;2022-08-11T16:40:20;9.65;;;2.90;;
62711;SDS011;48772;55.586;37.730;2022-08-11T16:42:48;9.40;;;2.60;;
62711;SDS011;48772;55.586;37.730;2022-08-11T16:45:40;10.50;;;2.75;;
62711;SDS011;48772;55.586;37.730;2022-08-11T16:48:33;9.35;;;2.40;;
62711;SDS011;48772;55.586;37.730;2022-08-11T16:51:00;9.27;;;2.60;;
62711;SDS011;48772;55.586;37.730;2022-08-11T16:53:30;7.75;;;2.38;;
62711;SDS011;48772;55.586;37.730;2022-08-11T16:55:57;8.30;;;2.50;;
62711;SDS011;48772;55.586;37.730;2022-08-11T16:58:27;5.60;;;2.70;;
62711;SDS011;48772;55.586;37.730;2022-08-11T17:01:13;6.78;;;2.60;;
62711;SDS011;48772;55.586;37.730;2022-08-11T17:03:42;10.38;;;3.40;;
62711;SDS011;48772;55.586;37.730;2022-08-11T17:06:30;9.00;;;3.47;;
62711;SDS011;48772;55.586;37.730;2022-08-11T17:09:19;10.18;;;2.75;;
62711;SDS011;48772;55.586;37.730;2022-08-11T17:12:06;4.10;;;2.50;;
62711;SDS011;48772;55.586;37.730;2022-08-11T17:14:55;7.45;;;2.90;;
62711;SDS011;48772;55.586;37.730;2022-08-11T17:17:25;8.45;;;3.90;;
62711;SDS011;48772;55.586;37.730;2022-08-11T17:19:57;8.38;;;3.35;;
62711;SDS011;48772;55.586;37.730;2022-08-11T17:22:27;7.90;;;3.08;;
62711;SDS011;48772;55.586;37.730;2022-08-11T17:25:13;6.68;;;4.07;;
62711;SDS011;48772;55.586;37.730;2022-08-11T17:27:40;7.53;;;3.67;;
62711;SDS011;48772;55.586;37.730;2022-08-11T17:30:07;4.57;;;3.05;;
62711;SDS011;48772;55.586;37.730;2022-08-11T17:32:39;8.48;;;3.90;;
62711;SDS011;48772;55.586;37.730;2022-08-11T17:35:28;10.93;;;4.25;;
62711;SDS011;48772;55.586;37.730;2022-08-11T17:40:36;7.88;;;2.83;;
62711;SDS011;48772;55.586;37.730;2022-08-11T17:43:05;9.77;;;3.33;;
62711;SDS011;48772;55.586;37.730;2022-08-11T17:45:51;9.75;;;3.22;;
62711;SDS011;48772;55.586;37.730;2022-08-11T17:48:33;8.93;;;4.60;;
62711;SDS011;48772;55.586;37.730;2022-08-11T17:51:08;9.07;;;3.70;;
62711;SDS011;48772;55.586;37.730;2022-08-11T17:53:42;9.52;;;4.80;;
62711;SDS011;48772;55.586;37.730;2022-08-11T17:56:29;10.10;;;4.10;;
62711;SDS011;48772;55.586;37.730;2022-08-11T17:59:15;8.90;;;4.15;;
62711;SDS011;48772;55.586;37.730;2022-08-11T18:02:02;6.20;;;2.55;;
62711;SDS011;48772;55.586;37.730;2022-08-11T18:04:50;10.43;;;4.55;;
62711;SDS011;48772;55.586;37.730;2022-08-11T18:07:17;11.90;;;5.80;;
62711;SDS011;48772;55.586;37.730;2022-08-11T18:10:05;17.60;;;6.32;;
62711;SDS011;48772;55.586;37.730;2022-08-11T18:12:51;12.38;;;4.95;;
62711;SDS011;48772;55.586;37.730;2022-08-11T18:15:39;12.00;;;4.70;;
62711;SDS011;48772;55.586;37.730;2022-08-11T18:18:26;9.55;;;3.45;;
62711;SDS011;48772;55.586;37.730;2022-08-11T18:21:12;13.77;;;5.13;;
62711;SDS011;48772;55.586;37.730;2022-08-11T18:24:00;9.85;;;4.40;;
62711;SDS011;48772;55.586;37.730;2022-08-11T18:26:47;9.30;;;3.90;;
62711;SDS011;48772;55.586;37.730;2022-08-11T18:29:33;5.97;;;3.83;;
62711;SDS011;48772;55.586;37.730;2022-08-11T18:32:23;12.77;;;5.05;;
62711;SDS011;48772;55.586;37.730;2022-08-11T18:35:10;15.70;;;5.00;;
62711;SDS011;48772;55.586;37.730;2022-08-11T18:37:57;11.95;;;5.00;;
62711;SDS011;48772;55.586;37.730;2022-08-11T18:40:47;13.05;;;6.00;;
62711;SDS011;48772;55.586;37.730;2022-08-11T18:43:33;11.68;;;5.50;;
62711;SDS011;48772;55.586;37.730;2022-08-11T18:46:22;18.73;;;6.25;;
62711;SDS011;48772;55.586;37.730;2022-08-11T18:49:10;21.95;;;6.43;;
62711;SDS011;48772;55.586;37.730;2022-08-11T18:51:57;16.67;;;6.13;;
62711;SDS011;48772;55.586;37.730;2022-08-11T18:54:48;24.25;;;8.27;;
62711;SDS011;48772;55.586;37.730;2022-08-11T18:57:35;21.75;;;7.60;;
62711;SDS011;48772;55.586;37.730;2022-08-11T19:00:23;23.00;;;7.55;;
62711;SDS011;48772;55.586;37.730;2022-08-11T19:03:11;23.70;;;6.65;;
62711;SDS011;48772;55.586;37.730;2022-08-11T19:06:00;26.58;;;7.60;;
62711;SDS011;48772;55.586;37.730;2022-08-11T19:08:48;26.45;;;7.15;;
62711;SDS011;48772;55.586;37.730;2022-08-11T19:11:39;12.90;;;6.10;;